createdAt,value
2022-12-18T00:00:59.872Z,-9.12
2022-12-18T00:02:00.092Z,-9.12
2022-12-18T00:03:00.267Z,-9.04
2022-12-18T00:04:00.403Z,-9.04
2022-12-18T00:05:00.492Z,-8.88
2022-12-18T00:06:00.637Z,-8.88
2022-12-18T00:07:00.789Z,-8.88
2022-12-18T00:08:00.947Z,-9.36
2022-12-18T00:09:01.091Z,-9.36
2022-12-18T00:10:01.210Z,-9.28
2022-12-18T00:11:01.344Z,-9.2
2022-12-18T00:13:03.765Z,-9.36
2022-12-18T00:14:01.796Z,-9.36
2022-12-18T00:15:01.963Z,-9.36
2022-12-18T00:16:02.115Z,-9.52
2022-12-18T00:17:02.198Z,-9.12
2022-12-18T00:18:02.303Z,-9.2
2022-12-18T00:19:02.456Z,-8.72
2022-12-18T00:20:02.607Z,-8.639999
2022-12-18T00:21:02.760Z,-8.639999
2022-12-18T00:22:02.908Z,-8.72
2022-12-18T00:23:03.068Z,-8.8
2022-12-18T00:24:03.159Z,-8.72
2022-12-18T00:25:03.251Z,-8.48
2022-12-18T00:26:03.418Z,-8.72
2022-12-18T00:27:03.565Z,-8.88
2022-12-18T00:28:03.726Z,-9.52
2022-12-18T00:29:03.875Z,-9.36
2022-12-18T00:30:04.030Z,-8.8
2022-12-18T00:31:04.227Z,-9.12
2022-12-18T00:32:04.325Z,-9.36
2022-12-18T00:33:04.423Z,-9.12
2022-12-18T00:34:04.586Z,-9.12
2022-12-18T00:35:04.735Z,-9.04
2022-12-18T00:36:04.829Z,-8.88
2022-12-18T00:37:04.988Z,-8.88
2022-12-18T00:38:05.140Z,-9.04
2022-12-18T00:39:05.290Z,-8.88
2022-12-18T00:40:05.435Z,-9.12
2022-12-18T00:41:05.590Z,-9.12
2022-12-18T00:42:05.692Z,-8.48
2022-12-18T00:43:05.840Z,-9.2
2022-12-18T00:44:05.999Z,-9.599999
2022-12-18T00:45:10.782Z,-9.679999
2022-12-18T00:46:06.377Z,-9.599999
2022-12-18T00:47:06.438Z,-9.599999
2022-12-18T00:48:06.594Z,-9.2
2022-12-18T00:49:06.696Z,-8.8
2022-12-18T00:50:06.843Z,-9.28
2022-12-18T00:51:07.027Z,-9.2
2022-12-18T00:52:07.094Z,-8.88
2022-12-18T00:53:07.277Z,-8.8
2022-12-18T00:54:07.419Z,-8.639999
2022-12-18T00:55:07.902Z,-8.639999
2022-12-18T00:56:07.705Z,-8.48
2022-12-18T00:57:07.802Z,-8.4
2022-12-18T00:58:07.966Z,-8.8
2022-12-18T00:59:08.072Z,-8.72
2022-12-18T01:00:08.219Z,-8.639999
2022-12-18T01:01:08.398Z,-9.04
2022-12-18T01:02:08.614Z,-9.36
2022-12-18T01:03:08.625Z,-9.679999
2022-12-18T01:04:08.666Z,-10.08
2022-12-18T01:05:08.827Z,-10.08
2022-12-18T01:06:08.969Z,-10.32
2022-12-18T01:07:09.133Z,-9.52
2022-12-18T01:08:09.284Z,-10.08
2022-12-18T01:09:09.437Z,-10
2022-12-18T01:10:09.580Z,-10
2022-12-18T01:11:09.736Z,-9.36
2022-12-18T01:12:09.883Z,-9.679999
2022-12-18T01:13:10.041Z,-9.679999
2022-12-18T01:14:10.190Z,-9.679999
2022-12-18T01:15:10.338Z,-10
2022-12-18T01:16:10.510Z,-10.08
2022-12-18T01:17:10.640Z,-9.92
2022-12-18T01:18:10.736Z,-10.48
2022-12-18T01:19:10.834Z,-10.719999
2022-12-18T01:20:11.002Z,-10.48
2022-12-18T01:21:11.147Z,-10.88
2022-12-18T01:22:11.299Z,-10.88
2022-12-18T01:23:11.454Z,-10.32
2022-12-18T01:24:11.598Z,-10.639999
2022-12-18T01:25:11.759Z,-10.08
2022-12-18T01:26:11.908Z,-10.08
2022-12-18T01:27:12.012Z,-9.84
2022-12-18T01:28:12.169Z,-9.84
2022-12-18T01:29:12.310Z,-9.2
2022-12-18T01:30:12.461Z,-9.2
2022-12-18T01:31:12.634Z,-9.679999
2022-12-18T01:32:12.729Z,-9.36
2022-12-18T01:33:12.810Z,-9.12
2022-12-18T01:34:12.903Z,-9.2
2022-12-18T01:35:13.070Z,-8.88
2022-12-18T01:36:13.210Z,-8.8
2022-12-18T01:37:13.892Z,-8.32
2022-12-18T01:38:13.476Z,-8.24
2022-12-18T01:39:13.624Z,-8.32
2022-12-18T01:40:13.723Z,-8.32
2022-12-18T01:41:13.836Z,-8.32
2022-12-18T01:42:13.967Z,-8.08
2022-12-18T01:43:14.123Z,-8.24
2022-12-18T01:44:14.222Z,-8.08
2022-12-18T01:45:14.340Z,-8.32
2022-12-18T01:46:14.484Z,-8.32
2022-12-18T01:47:14.626Z,-8.32
2022-12-18T01:48:14.784Z,-8.32
2022-12-18T01:49:14.895Z,-8.4
2022-12-18T01:50:15.045Z,-8.48
2022-12-18T01:51:15.212Z,-8.08
2022-12-18T01:52:15.406Z,-8.4
2022-12-18T01:53:15.488Z,-8.4
2022-12-18T01:54:15.636Z,-8.24
2022-12-18T01:55:15.796Z,-8.32
2022-12-18T01:56:15.949Z,-8.4
2022-12-18T01:57:16.101Z,-8.48
2022-12-18T01:58:16.261Z,-8.72
2022-12-18T01:59:16.409Z,-9.04
2022-12-18T02:00:16.560Z,-8.639999
2022-12-18T02:01:16.874Z,-8.72
2022-12-18T02:02:17.001Z,-8.72
2022-12-18T02:03:17.006Z,-8.8
2022-12-18T02:04:17.076Z,-8.8
2022-12-18T02:05:17.210Z,-8.48
2022-12-18T02:06:17.368Z,-8.72
2022-12-18T02:07:17.475Z,-8.72
2022-12-18T02:08:17.641Z,-8.88
2022-12-18T02:09:17.760Z,-9.2
2022-12-18T02:10:17.907Z,-9.36
2022-12-18T02:11:18.079Z,-9.92
2022-12-18T02:12:18.217Z,-10.719999
2022-12-18T02:13:18.373Z,-10.88
2022-12-18T02:14:18.525Z,-10.88
2022-12-18T02:15:18.683Z,-11.04
2022-12-18T02:16:18.841Z,-10.88
2022-12-18T02:17:18.971Z,-10.719999
2022-12-18T02:18:19.068Z,-10.88
2022-12-18T02:19:19.229Z,-10.8
2022-12-18T02:20:19.345Z,-10.719999
2022-12-18T02:21:19.486Z,-11.04
2022-12-18T02:22:19.634Z,-10.4
2022-12-18T02:23:19.736Z,-10.4
2022-12-18T02:24:19.895Z,-10.24
2022-12-18T02:25:20.041Z,-10.24
2022-12-18T02:26:20.185Z,-10.639999
2022-12-18T02:27:20.342Z,-10.4
2022-12-18T02:28:20.494Z,-10.639999
2022-12-18T02:29:20.596Z,-11.04
2022-12-18T02:30:20.705Z,-10
2022-12-18T02:31:20.838Z,-10.639999
2022-12-18T02:32:21.007Z,-10.639999
2022-12-18T02:33:21.158Z,-10.4
2022-12-18T02:34:21.313Z,-10.4
2022-12-18T02:35:21.460Z,-10.719999
2022-12-18T02:36:21.594Z,-10.88
2022-12-18T02:37:21.747Z,-10.4
2022-12-18T02:38:21.894Z,-10.639999
2022-12-18T02:39:22.005Z,-10.32
2022-12-18T02:40:22.156Z,-10.48
2022-12-18T02:41:22.254Z,-10.8
2022-12-18T02:42:22.353Z,-10.88
2022-12-18T02:43:22.521Z,-10.719999
2022-12-18T02:44:22.657Z,-11.12
2022-12-18T02:45:23.312Z,-11.04
2022-12-18T02:46:22.960Z,-11.12
2022-12-18T02:47:23.072Z,-10.88
2022-12-18T02:48:23.226Z,-10.8
2022-12-18T02:49:23.385Z,-11.28
2022-12-18T02:50:23.484Z,-11.52
2022-12-18T02:51:23.623Z,-11.52
2022-12-18T02:52:23.784Z,-11.84
2022-12-18T02:53:23.935Z,-11.44
2022-12-18T02:54:24.093Z,-11.52
2022-12-18T02:55:24.244Z,-11.52
2022-12-18T02:56:24.337Z,-11.52
2022-12-18T02:57:24.441Z,-10.8
2022-12-18T02:58:24.588Z,-10.32
2022-12-18T02:59:24.696Z,-10.32
2022-12-18T03:00:24.842Z,-10.24
2022-12-18T03:01:24.991Z,-10.24
2022-12-18T03:02:25.158Z,-9.84
2022-12-18T03:03:25.226Z,-9.84
2022-12-18T03:04:25.349Z,-9.36
2022-12-18T03:05:25.500Z,-9.679999
2022-12-18T03:06:25.654Z,-10
2022-12-18T03:07:25.816Z,-9.92
2022-12-18T03:08:25.954Z,-9.679999
2022-12-18T03:09:26.111Z,-9.92
2022-12-18T03:10:26.255Z,-9.92
2022-12-18T03:11:26.371Z,-9.84
2022-12-18T03:12:26.512Z,-9.679999
2022-12-18T03:13:26.668Z,-10.08
2022-12-18T03:14:26.789Z,-11.04
2022-12-18T03:15:26.918Z,-10.88
2022-12-18T03:16:27.106Z,-10.48
2022-12-18T03:17:27.166Z,-10.4
2022-12-18T03:18:27.328Z,-11.04
2022-12-18T03:19:27.425Z,-9.84
2022-12-18T03:20:27.582Z,-10.32
2022-12-18T03:21:27.718Z,-11.2
2022-12-18T03:22:27.871Z,-11.2
2022-12-18T03:23:28.024Z,-11.12
2022-12-18T03:24:28.192Z,-11.28
2022-12-18T03:25:28.338Z,-11.04
2022-12-18T03:26:28.477Z,-10.48
2022-12-18T03:27:28.633Z,-10.719999
2022-12-18T03:28:28.783Z,-11.599999
2022-12-18T03:29:28.937Z,-11.52
2022-12-18T03:30:29.118Z,-11.679999
2022-12-18T03:31:29.238Z,-11.599999
2022-12-18T03:32:29.276Z,-11.52
2022-12-18T03:33:29.389Z,-11.679999
2022-12-18T03:34:29.548Z,-11.28
2022-12-18T03:35:29.694Z,-10.8
2022-12-18T03:36:29.836Z,-11.12
2022-12-18T03:37:29.995Z,-11.28
2022-12-18T03:38:30.152Z,-11.28
2022-12-18T03:39:30.259Z,-11.12
2022-12-18T03:40:30.344Z,-11.04
2022-12-18T03:41:30.461Z,-10.719999
2022-12-18T03:42:30.609Z,-10.719999
2022-12-18T03:43:30.757Z,-10.32
2022-12-18T03:44:30.907Z,-10.08
2022-12-18T03:45:31.048Z,-10.8
2022-12-18T03:46:31.252Z,-10.719999
2022-12-18T03:47:31.376Z,-10.719999
2022-12-18T03:48:31.638Z,-11.2
2022-12-18T03:49:31.713Z,-11.2
2022-12-18T03:50:31.868Z,-11.2
2022-12-18T03:51:31.978Z,-11.44
2022-12-18T03:52:32.119Z,-11.28
2022-12-18T03:53:32.220Z,-11.44
2022-12-18T03:54:32.371Z,-11.2
2022-12-18T03:55:32.530Z,-11.2
2022-12-18T03:56:32.667Z,-11.2
2022-12-18T03:57:32.822Z,-11.44
2022-12-18T03:58:32.982Z,-11.84
2022-12-18T03:59:33.135Z,-11.84
2022-12-18T04:00:33.266Z,-11.84
2022-12-18T04:01:33.514Z,-11.92
2022-12-18T04:02:33.689Z,-11.84
2022-12-18T04:03:33.817Z,-11.599999
2022-12-18T04:04:33.886Z,-11.599999
2022-12-18T04:05:34.033Z,-11.2
2022-12-18T04:06:34.190Z,-11.2
2022-12-18T04:07:34.340Z,-10.24
2022-12-18T04:08:34.494Z,-10.639999
2022-12-18T04:09:34.640Z,-11.04
2022-12-18T04:10:34.794Z,-10.88
2022-12-18T04:11:34.950Z,-11.599999
2022-12-18T04:12:35.099Z,-12.24
2022-12-18T04:13:35.260Z,-12.4
2022-12-18T04:14:35.359Z,-12.799999
2022-12-18T04:15:35.590Z,-12.719999
2022-12-18T04:16:35.649Z,-12.24
2022-12-18T04:17:35.768Z,-11.84
2022-12-18T04:18:35.912Z,-11.92
2022-12-18T04:19:36.054Z,-11.679999
2022-12-18T04:20:36.208Z,-11.599999
2022-12-18T04:21:36.362Z,-11.92
2022-12-18T04:22:36.511Z,-11.92
2022-12-18T04:23:36.866Z,-11.84
2022-12-18T04:24:36.813Z,-11.92
2022-12-18T04:25:36.914Z,-11.28
2022-12-18T04:26:37.073Z,-11.2
2022-12-18T04:27:37.233Z,-11.52
2022-12-18T04:28:37.379Z,-11.679999
2022-12-18T04:29:37.522Z,-11.28
2022-12-18T04:30:37.614Z,-11.52
2022-12-18T04:31:37.833Z,-11.28
2022-12-18T04:32:37.930Z,-11.2
2022-12-18T04:33:38.529Z,-11.52
2022-12-18T04:34:38.237Z,-11.28
2022-12-18T04:35:38.343Z,-10.8
2022-12-18T04:36:38.484Z,-10.719999
2022-12-18T04:37:38.804Z,-11.679999
2022-12-18T04:38:38.821Z,-11.44
2022-12-18T04:39:38.978Z,-11.04
2022-12-18T04:40:39.089Z,-10.88
2022-12-18T04:41:39.247Z,-11.679999
2022-12-18T04:42:39.441Z,-12.32
2022-12-18T04:43:39.984Z,-12.08
2022-12-18T04:44:39.697Z,-11.2
2022-12-18T04:45:39.834Z,-11.2
2022-12-18T04:46:40.084Z,-11.599999
2022-12-18T04:47:40.140Z,-10.8
2022-12-18T04:48:40.275Z,-11.04
2022-12-18T04:49:40.403Z,-10.48
2022-12-18T04:50:40.566Z,-10.719999
2022-12-18T04:51:40.701Z,-10.4
2022-12-18T04:52:40.860Z,-10.4
2022-12-18T04:53:41.353Z,-10.88
2022-12-18T04:54:41.109Z,-10.4
2022-12-18T04:55:41.261Z,-9.92
2022-12-18T04:56:41.414Z,-9.84
2022-12-18T04:57:41.562Z,-9.36
2022-12-18T04:58:41.687Z,-9.2
2022-12-18T04:59:41.835Z,-9.04
2022-12-18T05:00:41.956Z,-8.8
2022-12-18T05:01:42.195Z,-8.88
2022-12-18T05:02:42.351Z,-8.72
2022-12-18T05:03:42.724Z,-8.48
2022-12-18T05:04:42.530Z,-8.72
2022-12-18T05:05:42.629Z,-8.72
2022-12-18T05:06:42.779Z,-8.88
2022-12-18T05:07:42.928Z,-9.04
2022-12-18T05:08:43.065Z,-8.72
2022-12-18T05:09:43.188Z,-8.72
2022-12-18T05:10:43.348Z,-8.639999
2022-12-18T05:11:43.480Z,-8.72
2022-12-18T05:12:43.634Z,-8.48
2022-12-18T05:13:43.784Z,-8.88
2022-12-18T05:14:43.946Z,-8.72
2022-12-18T05:15:44.056Z,-8.8
2022-12-18T05:16:44.132Z,-8.8
2022-12-18T05:17:44.297Z,-8.639999
2022-12-18T05:18:44.443Z,-8.72
2022-12-18T05:19:44.591Z,-8.639999
2022-12-18T05:20:44.693Z,-8.639999
2022-12-18T05:21:44.856Z,-8.4
2022-12-18T05:22:44.939Z,-8.4
2022-12-18T05:23:45.088Z,-8.639999
2022-12-18T05:24:45.204Z,-8.639999
2022-12-18T05:25:45.358Z,-8.639999
2022-12-18T05:26:45.510Z,-8.639999
2022-12-18T05:27:45.663Z,-8.639999
2022-12-18T05:28:45.845Z,-8.4
2022-12-18T05:29:45.964Z,-8.72
2022-12-18T05:30:46.098Z,-8.4
2022-12-18T05:31:46.221Z,-8.4
2022-12-18T05:32:46.373Z,-8.639999
2022-12-18T05:33:46.513Z,-8.48
2022-12-18T05:34:46.658Z,-8.48
2022-12-18T05:35:46.819Z,-8.48
2022-12-18T05:36:46.974Z,-8.4
2022-12-18T05:37:47.083Z,-8.4
2022-12-18T05:38:47.178Z,-8.32
2022-12-18T05:39:47.328Z,-8.24
2022-12-18T05:40:47.475Z,-8.32
2022-12-18T05:41:47.629Z,-8.24
2022-12-18T05:42:47.785Z,-8.24
2022-12-18T05:43:47.940Z,-8.32
2022-12-18T05:44:48.100Z,-8.32
2022-12-18T05:45:48.217Z,-8.32
2022-12-18T05:46:48.468Z,-8.24
2022-12-18T05:47:48.485Z,-8.4
2022-12-18T05:48:48.637Z,-8.32
2022-12-18T05:49:48.796Z,-8.32
2022-12-18T05:50:48.943Z,-8.32
2022-12-18T05:51:49.085Z,-8.32
2022-12-18T05:52:49.239Z,-8.32
2022-12-18T05:53:49.400Z,-8.4
2022-12-18T05:54:49.555Z,-8.32
2022-12-18T05:55:49.710Z,-8.4
2022-12-18T05:56:49.806Z,-8.48
2022-12-18T05:57:49.956Z,-8.32
2022-12-18T05:58:50.104Z,-8.32
2022-12-18T05:59:50.260Z,-8.24
2022-12-18T06:00:50.396Z,-8.32
2022-12-18T06:01:50.616Z,-8.8
2022-12-18T06:02:50.822Z,-8.639999
2022-12-18T06:03:50.935Z,-8.639999
2022-12-18T06:04:51.010Z,-8.72
2022-12-18T06:05:51.161Z,-8.639999
2022-12-18T06:06:51.320Z,-8.72
2022-12-18T06:07:51.470Z,-9.12
2022-12-18T06:08:51.566Z,-9.04
2022-12-18T06:09:51.727Z,-8.72
2022-12-18T06:10:51.872Z,-8.639999
2022-12-18T06:11:52.037Z,-8.32
2022-12-18T06:12:52.138Z,-8.4
2022-12-18T06:13:56.288Z,-8.48
2022-12-18T06:14:52.377Z,-8.4
2022-12-18T06:15:52.511Z,-8.4
2022-12-18T06:16:52.581Z,-8.4
2022-12-18T06:17:52.734Z,-8.32
2022-12-18T06:18:52.893Z,-8.32
2022-12-18T06:19:53.040Z,-8.4
2022-12-18T06:20:53.185Z,-8.8
2022-12-18T06:21:53.337Z,-8.32
2022-12-18T06:22:53.495Z,-8.32
2022-12-18T06:23:53.647Z,-8.639999
2022-12-18T06:24:53.794Z,-8.4
2022-12-18T06:25:53.942Z,-8.24
2022-12-18T06:26:54.094Z,-8.8
2022-12-18T06:27:54.232Z,-9.52
2022-12-18T06:28:54.386Z,-8.8
2022-12-18T06:29:54.508Z,-8.4
2022-12-18T06:30:54.634Z,-8.08
2022-12-18T06:31:54.844Z,-8
2022-12-18T06:32:56.835Z,-7.68
2022-12-18T06:33:55.090Z,-7.6
2022-12-18T06:34:55.256Z,-7.84
2022-12-18T06:36:00.846Z,-7.92
2022-12-18T06:36:55.512Z,-7.92
2022-12-18T06:37:55.664Z,-7.68
2022-12-18T06:38:55.814Z,-7.92
2022-12-18T06:39:55.957Z,-7.84
2022-12-18T06:40:56.113Z,-7.68
2022-12-18T06:41:56.278Z,-7.92
2022-12-18T06:42:56.421Z,-7.68
2022-12-18T06:43:59.654Z,-7.68
2022-12-18T06:44:56.729Z,-7.68
2022-12-18T06:45:56.916Z,-7.84
2022-12-18T06:46:57.335Z,-7.68
2022-12-18T06:47:57.467Z,-7.68
2022-12-18T06:48:57.224Z,-7.6
2022-12-18T06:49:57.380Z,-7.52
2022-12-18T06:50:57.531Z,-7.44
2022-12-18T06:51:57.667Z,-7.6
2022-12-18T06:52:57.835Z,-7.68
2022-12-18T06:53:57.993Z,-7.6
2022-12-18T06:54:58.138Z,-7.52
2022-12-18T06:55:58.285Z,-7.6
2022-12-18T06:56:58.439Z,-7.52
2022-12-18T06:57:58.591Z,-7.52
2022-12-18T06:58:58.748Z,-7.6
2022-12-18T06:59:58.905Z,-7.6
2022-12-18T07:00:59.071Z,-7.68
2022-12-18T07:01:59.273Z,-7.52
2022-12-18T07:02:59.356Z,-7.6
2022-12-18T07:03:59.453Z,-7.52
2022-12-18T07:04:59.598Z,-7.44
2022-12-18T07:05:59.754Z,-7.52
2022-12-18T07:06:59.853Z,-7.52
2022-12-18T07:08:00.022Z,-7.44
2022-12-18T07:09:00.159Z,-7.44
2022-12-18T07:10:00.297Z,-7.6
2022-12-18T07:11:00.395Z,-7.68
2022-12-18T07:12:00.558Z,-7.68
2022-12-18T07:13:00.708Z,-7.84
2022-12-18T07:14:00.870Z,-7.84
2022-12-18T07:15:01.017Z,-7.92
2022-12-18T07:16:01.163Z,-7.92
2022-12-18T07:17:01.308Z,-8
2022-12-18T07:18:01.403Z,-8
2022-12-18T07:19:01.527Z,-7.6
2022-12-18T07:20:01.664Z,-7.68
2022-12-18T07:21:01.812Z,-7.68
2022-12-18T07:22:01.920Z,-7.68
2022-12-18T07:23:02.077Z,-7.6
2022-12-18T07:24:02.224Z,-7.68
2022-12-18T07:25:02.393Z,-7.6
2022-12-18T07:26:02.535Z,-7.6
2022-12-18T07:27:02.643Z,-7.68
2022-12-18T07:28:02.785Z,-7.68
2022-12-18T07:29:02.959Z,-7.6
2022-12-18T07:30:03.082Z,-7.6
2022-12-18T07:31:03.171Z,-7.84
2022-12-18T07:32:03.336Z,-7.68
2022-12-18T07:33:03.442Z,-7.6
2022-12-18T07:34:03.595Z,-7.84
2022-12-18T07:35:03.743Z,-7.68
2022-12-18T07:36:03.896Z,-7.68
2022-12-18T07:37:04.052Z,-7.68
2022-12-18T07:38:04.164Z,-7.68
2022-12-18T07:39:04.294Z,-7.52
2022-12-18T07:40:04.450Z,-7.52
2022-12-18T07:41:04.599Z,-7.28
2022-12-18T07:42:04.762Z,-7.52
2022-12-18T07:43:04.892Z,-7.28
2022-12-18T07:44:05.059Z,-7.52
2022-12-18T07:45:05.211Z,-7.52
2022-12-18T07:46:05.381Z,-7.52
2022-12-18T07:47:09.083Z,-7.6
2022-12-18T07:48:05.664Z,-7.6
2022-12-18T07:49:05.808Z,-7.52
2022-12-18T07:50:05.971Z,-7.44
2022-12-18T07:51:06.127Z,-7.28
2022-12-18T07:52:06.270Z,-7.28
2022-12-18T07:53:06.428Z,-7.2
2022-12-18T07:54:06.569Z,-7.2
2022-12-18T07:55:06.720Z,-7.28
2022-12-18T07:56:26.331Z,-7.04
2022-12-18T07:57:16.405Z,-7.12
2022-12-18T07:58:07.127Z,-7.04
2022-12-18T07:59:07.293Z,-6.88
2022-12-18T08:00:07.437Z,-6.72
2022-12-18T08:01:07.579Z,-6.8
2022-12-18T08:02:07.761Z,-6.88
2022-12-18T08:03:07.855Z,-6.72
2022-12-18T08:04:07.989Z,-6.72
2022-12-18T08:05:08.139Z,-6.72
2022-12-18T08:06:08.284Z,-6.8
2022-12-18T08:07:08.436Z,-6.64
2022-12-18T08:08:08.601Z,-6.08
2022-12-18T08:09:08.749Z,-5.68
2022-12-18T08:10:08.849Z,-5.52
2022-12-18T08:11:08.993Z,-5.28
2022-12-18T08:12:09.153Z,-5.44
2022-12-18T08:13:09.283Z,-5.12
2022-12-18T08:14:09.452Z,-5.2
2022-12-18T08:15:09.559Z,-4.88
2022-12-18T08:16:09.742Z,-4.8
2022-12-18T08:17:09.841Z,-4.72
2022-12-18T08:18:14.000Z,-4.72
2022-12-18T08:19:10.056Z,-4.4
2022-12-18T08:20:10.162Z,-4
2022-12-18T08:21:10.311Z,-4.32
2022-12-18T08:22:10.462Z,-4.4
2022-12-18T08:23:10.608Z,-4.16
2022-12-18T08:24:10.764Z,-4.32
2022-12-18T08:25:10.932Z,-3.68
2022-12-18T08:26:11.069Z,-3.84
2022-12-18T08:27:28.657Z,-3.92
2022-12-18T08:28:11.316Z,-3.68
2022-12-18T08:29:11.474Z,-3.6
2022-12-18T08:30:11.623Z,-3.68
2022-12-18T08:31:11.788Z,-3.52
2022-12-18T08:32:11.994Z,-3.52
2022-12-18T08:33:12.094Z,-3.28
2022-12-18T08:34:12.213Z,-2.48
2022-12-18T08:35:12.385Z,-2.64
2022-12-18T08:36:12.527Z,-3.12
2022-12-18T08:37:12.675Z,-2.8
2022-12-18T08:38:12.793Z,-2.88
2022-12-18T08:39:12.938Z,-2.4
2022-12-18T08:40:13.088Z,-2.72
2022-12-18T08:41:13.189Z,-2.24
2022-12-18T08:42:13.343Z,-1.92
2022-12-18T08:43:13.500Z,-2.4
2022-12-18T08:44:13.604Z,-2.08
2022-12-18T08:45:13.749Z,-2.24
2022-12-18T08:46:13.910Z,-1.84
2022-12-18T08:47:14.008Z,-1.84
2022-12-18T08:48:17.854Z,-1.2
2022-12-18T08:49:14.287Z,-1.68
2022-12-18T08:50:14.460Z,-1.92
2022-12-18T08:51:14.568Z,-1.44
2022-12-18T08:52:14.701Z,-1.12
2022-12-18T08:53:14.868Z,-1.44
2022-12-18T08:54:14.963Z,-1.84
2022-12-18T08:55:15.118Z,-1.12
2022-12-18T08:56:15.217Z,-1.52
2022-12-18T08:57:15.366Z,-0.8
2022-12-18T08:58:15.452Z,-1.44
2022-12-18T08:59:19.273Z,-1.52
2022-12-18T09:00:15.773Z,-1.68
2022-12-18T09:01:16.012Z,-0.88
2022-12-18T09:02:16.182Z,-0.8
2022-12-18T09:03:16.164Z,-0.88
2022-12-18T09:04:16.222Z,-1.44
2022-12-18T09:05:16.372Z,-0.8
2022-12-18T09:06:16.537Z,0.48
2022-12-18T09:07:16.675Z,-0.32
2022-12-18T09:08:16.833Z,-0.4
2022-12-18T09:09:16.989Z,-0.24
2022-12-18T09:10:17.133Z,-1.04
2022-12-18T09:11:17.282Z,-1.2
2022-12-18T09:12:17.435Z,0
2022-12-18T09:13:17.582Z,-1.04
2022-12-18T09:14:17.733Z,-1.04
2022-12-18T09:15:17.894Z,-0.32
2022-12-18T09:16:18.062Z,-0.08
2022-12-18T09:17:18.224Z,-0.08
2022-12-18T09:18:18.305Z,-0.32
2022-12-18T09:19:18.439Z,0.32
2022-12-18T09:20:18.601Z,1.28
2022-12-18T09:21:18.745Z,-0.08
2022-12-18T09:22:18.881Z,-0.32
2022-12-18T09:23:19.000Z,0.72
2022-12-18T09:24:19.152Z,-0.48
2022-12-18T09:25:19.313Z,-1.2
2022-12-18T09:26:19.474Z,-0.88
2022-12-18T09:27:19.599Z,-1.04
2022-12-18T09:28:19.767Z,-0.24
2022-12-18T09:29:19.911Z,1.28
2022-12-18T09:30:20.063Z,2.24
2022-12-18T09:31:20.249Z,2.4
2022-12-18T09:32:22.424Z,2.48
2022-12-18T09:33:20.514Z,2.64
2022-12-18T09:34:20.657Z,3.04
2022-12-18T09:35:20.801Z,2
2022-12-18T09:36:20.968Z,1.6
2022-12-18T09:37:21.122Z,1.52
2022-12-18T09:38:21.221Z,1.2
2022-12-18T09:39:21.955Z,1.68
2022-12-18T09:40:21.567Z,0.88
2022-12-18T09:41:21.691Z,1.52
2022-12-18T09:42:21.839Z,2.64
2022-12-18T09:43:21.979Z,1.6
2022-12-18T09:44:22.175Z,0.32
2022-12-18T09:45:22.281Z,-0.24
2022-12-18T09:46:22.447Z,0.32
2022-12-18T09:47:22.551Z,-0.08
2022-12-18T09:48:22.674Z,1.52
2022-12-18T09:49:22.838Z,0.64
2022-12-18T09:50:22.944Z,0.08
2022-12-18T09:51:23.087Z,-0.72
2022-12-18T09:52:23.246Z,-0.48
2022-12-18T09:53:23.338Z,-0.48
2022-12-18T09:54:23.443Z,-0.88
2022-12-18T09:55:23.592Z,-0.32
2022-12-18T09:56:23.745Z,0.72
2022-12-18T09:57:23.895Z,0.8
2022-12-18T09:58:24.060Z,0.24
2022-12-18T09:59:24.198Z,0
2022-12-18T10:00:24.354Z,1.12
2022-12-18T10:01:24.626Z,3.2
2022-12-18T10:02:24.754Z,1.92
2022-12-18T10:03:24.744Z,1.12
2022-12-18T10:04:24.936Z,2.8
2022-12-18T10:05:25.047Z,2.32
2022-12-18T10:06:25.197Z,3.6
2022-12-18T10:07:25.355Z,2.24
2022-12-18T10:08:25.509Z,0.4
2022-12-18T10:09:25.709Z,1.6
2022-12-18T10:10:25.812Z,2.72
2022-12-18T10:11:25.915Z,3.12
2022-12-18T10:12:26.003Z,1.04
2022-12-18T10:13:26.121Z,0.4
2022-12-18T10:14:26.273Z,0.8
2022-12-18T10:15:26.424Z,2.08
2022-12-18T10:16:26.618Z,1.52
2022-12-18T10:17:26.782Z,1.52
2022-12-18T10:18:26.889Z,3.28
2022-12-18T10:19:27.027Z,4.72
2022-12-18T10:20:27.180Z,3.68
2022-12-18T10:21:27.326Z,1.28
2022-12-18T10:22:27.489Z,0.48
2022-12-18T10:23:27.636Z,0.88
2022-12-18T10:24:27.792Z,0.24
2022-12-18T10:25:27.935Z,1.84
2022-12-18T10:26:28.087Z,2.8
2022-12-18T10:27:28.192Z,1.52
2022-12-18T10:28:28.361Z,0.8
2022-12-18T10:29:28.494Z,2
2022-12-18T10:30:28.645Z,3.2
2022-12-18T10:31:28.858Z,1.92
2022-12-18T10:32:28.917Z,1.28
2022-12-18T10:33:29.056Z,1.52
2022-12-18T10:34:29.198Z,0.48
2022-12-18T10:35:29.354Z,1.04
2022-12-18T10:36:29.502Z,0.72
2022-12-18T10:37:29.654Z,0.64
2022-12-18T10:38:29.806Z,1.52
2022-12-18T10:39:29.972Z,0.72
2022-12-18T10:40:30.116Z,0.48
2022-12-18T10:41:30.253Z,0.64
2022-12-18T10:42:30.414Z,0.08
2022-12-18T10:43:30.567Z,0.24
2022-12-18T10:44:30.720Z,0.48
2022-12-18T10:45:30.861Z,0.32
2022-12-18T10:46:31.129Z,0.24
2022-12-18T10:47:31.109Z,0.32
2022-12-18T10:48:31.287Z,0
2022-12-18T10:49:31.383Z,-0.4
2022-12-18T10:50:47.069Z,-0.32
2022-12-18T10:51:31.913Z,0
2022-12-18T10:52:31.877Z,-0.48
2022-12-18T10:53:32.030Z,-0.24
2022-12-18T10:54:32.175Z,-0.64
2022-12-18T10:55:32.336Z,-0.72
2022-12-18T10:56:32.487Z,-0.88
2022-12-18T10:57:32.642Z,-0.88
2022-12-18T10:58:32.785Z,-0.88
2022-12-18T10:59:32.949Z,-0.72
2022-12-18T11:00:33.080Z,-0.72
2022-12-18T11:01:33.289Z,-0.88
2022-12-18T11:02:33.499Z,-0.64
2022-12-18T11:03:33.591Z,-0.64
2022-12-18T11:04:33.710Z,-0.72
2022-12-18T11:05:33.872Z,-0.72
2022-12-18T11:06:34.003Z,-0.72
2022-12-18T11:07:34.144Z,-0.88
2022-12-18T11:08:34.304Z,-1.04
2022-12-18T11:09:34.448Z,-0.8
2022-12-18T11:10:34.557Z,-1.04
2022-12-18T11:11:34.722Z,-0.88
2022-12-18T11:12:34.858Z,-1.12
2022-12-18T11:13:35.014Z,-0.88
2022-12-18T11:14:35.155Z,-0.88
2022-12-18T11:15:35.291Z,-0.64
2022-12-18T11:16:35.451Z,-0.72
2022-12-18T11:17:35.546Z,-0.72
2022-12-18T11:18:35.697Z,-0.72
2022-12-18T11:19:35.850Z,-0.4
2022-12-18T11:20:36.009Z,-0.64
2022-12-18T11:21:36.136Z,-0.48
2022-12-18T11:22:36.270Z,-0.72
2022-12-18T11:23:36.422Z,-0.88
2022-12-18T11:24:36.524Z,-0.48
2022-12-18T11:25:36.695Z,-0.48
2022-12-18T11:26:36.821Z,-0.4
2022-12-18T11:27:36.978Z,-0.08
2022-12-18T11:28:37.336Z,0
2022-12-18T11:29:39.579Z,0.32
2022-12-18T11:30:37.423Z,0.24
2022-12-18T11:31:37.635Z,0.4
2022-12-18T11:32:37.721Z,0
2022-12-18T11:33:37.877Z,0.32
2022-12-18T11:34:37.975Z,0.48
2022-12-18T11:35:38.075Z,0.8
2022-12-18T11:36:38.192Z,0.8
2022-12-18T11:37:38.345Z,0.48
2022-12-18T11:38:38.923Z,0.64
2022-12-18T11:39:38.650Z,0.8
2022-12-18T11:40:41.218Z,1.12
2022-12-18T11:41:38.852Z,0.88
2022-12-18T11:42:38.950Z,0.48
2022-12-18T11:43:39.106Z,0.8
2022-12-18T11:44:39.256Z,0.72
2022-12-18T11:45:39.388Z,0.88
2022-12-18T11:46:39.595Z,0.64
2022-12-18T11:47:39.720Z,0.48
2022-12-18T11:48:40.279Z,0
2022-12-18T11:49:40.010Z,0
2022-12-18T11:50:40.116Z,0.72
2022-12-18T11:51:40.272Z,0.32
2022-12-18T11:52:40.783Z,0.72
2022-12-18T11:53:41.014Z,0.4
2022-12-18T11:54:40.708Z,0.4
2022-12-18T11:55:41.257Z,0.24
2022-12-18T11:56:41.387Z,0.48
2022-12-18T11:57:41.505Z,0.24
2022-12-18T11:58:41.981Z,0
2022-12-18T11:59:41.424Z,0
2022-12-18T12:00:41.559Z,0
2022-12-18T12:01:44.195Z,0.08
2022-12-18T12:02:41.959Z,0.08
2022-12-18T12:03:42.334Z,-0.08
2022-12-18T12:04:42.039Z,-0.08
2022-12-18T12:05:42.151Z,-0.32
2022-12-18T12:06:42.302Z,-0.24
2022-12-18T12:07:42.440Z,-0.24
2022-12-18T12:08:42.582Z,-0.48
2022-12-18T12:09:42.740Z,-0.32
2022-12-18T12:10:42.882Z,-0.32
2022-12-18T12:11:43.036Z,-0.4
2022-12-18T12:12:47.998Z,-0.72
2022-12-18T12:13:43.562Z,-1.2
2022-12-18T12:14:43.409Z,-1.28
2022-12-18T12:15:43.531Z,-1.2
2022-12-18T12:16:43.751Z,-1.28
2022-12-18T12:17:43.845Z,-1.2
2022-12-18T12:18:43.957Z,-1.28
2022-12-18T12:19:44.093Z,-1.28
2022-12-18T12:20:44.249Z,-1.52
2022-12-18T12:21:44.411Z,-1.2
2022-12-18T12:22:44.515Z,-1.12
2022-12-18T12:23:45.003Z,-1.2
2022-12-18T12:24:44.755Z,-1.52
2022-12-18T12:25:44.912Z,-1.68
2022-12-18T12:26:45.064Z,-1.68
2022-12-18T12:27:45.213Z,-1.6
2022-12-18T12:28:45.317Z,-1.52
2022-12-18T12:29:45.465Z,-1.6
2022-12-18T12:30:45.605Z,-1.6
2022-12-18T12:31:45.815Z,-1.68
2022-12-18T12:32:45.865Z,-1.68
2022-12-18T12:33:45.986Z,-1.68
2022-12-18T12:34:46.060Z,-1.6
2022-12-18T12:35:46.219Z,-1.92
2022-12-18T12:36:46.377Z,-1.84
2022-12-18T12:37:46.529Z,-1.84
2022-12-18T12:38:51.517Z,-1.84
2022-12-18T12:39:46.777Z,-1.84
2022-12-18T12:40:53.721Z,-2
2022-12-18T12:41:47.081Z,-1.92
2022-12-18T12:42:47.240Z,-2
2022-12-18T12:43:50.287Z,-2
2022-12-18T12:44:51.339Z,-2
2022-12-18T12:45:47.701Z,-2
2022-12-18T12:46:47.826Z,-2
2022-12-18T12:47:47.926Z,-2.24
2022-12-18T12:48:48.080Z,-2.24
2022-12-18T12:49:48.205Z,-2.24
2022-12-18T12:50:48.352Z,-2.24
2022-12-18T12:51:48.482Z,-2.24
2022-12-18T12:52:48.650Z,-2.08